Ottine, TX (78658)

12:01 AM CDT on April 19, 2015 (GMT -0500)
Gonzales Roger M. Dreyer Memo | | Change Station
CLOSE
Current Station
Airport
Location: Gonzales Roger M. Dreyer Memo,
Elevation: 351 ft
Nearby Weather Stations

Elev 351 ft 29.53 °N, 97.46 °W | Updated 26 minutes ago

Overcast
Overcast
66 °F
Feels Like 66 °F
N
9
Wind Variable Wind from NE

Today
High -- | Low -- °F
--% Chance of Precip.
Yesterday
High -- | Low -- °F
Precip. -- in
6:59 AM 7:59 PM
New Moon, 0% visible
Pressure 29.87 in
Visibility 10.0 miles
Clouds Mostly Cloudy 1900 ft
Mostly Cloudy 2900 ft
Overcast 4100 ft
Dew Point 63 °F
Humidity 88%
Rainfall 0.00 in
Snow Depth Not available.
UV 0 out of 12
Pollen 5.00 out of 12
Air Quality Not available.
Flu Activity Local Activity
METAR KT20 190435Z AUTO 05008KT 10SM TS BKN019 BKN029 OVC041 19/17 A2987 RMK AO2 LTG DSNT N AND NE T01910170

More Conditions Fewer Conditions

Pressure 29.87 in
Visibility 10.0 miles
Clouds Mostly Cloudy 1900 ft
Mostly Cloudy 2900 ft
Overcast 4100 ft
Dew Point 63 °F
Humidity 88%
Rainfall 0.00 in
Snow Depth Not available.
UV 0 out of 12
Pollen 5.00 out of 12
Air Quality Not available.
Flu Activity Local Activity
METAR KT20 190435Z AUTO 05008KT 10SM TS BKN019 BKN029 OVC041 19/17 A2987 RMK AO2 LTG DSNT N AND NE T01910170

More Conditions Fewer Conditions

Nowcast | as of 11:09 PM CDT on April 18, 2015

Scattered showers and thunderstorms can be expected for areas generally along and north of Interstate 10 through 1 am CDT. This activity will move to the east around 20 mph. Thunderstorms will be capable of producing brief heavy rain...occasional lightning strikes and wind gusts to 40 mph. Rainfall amounts up to one half of an inch are possible with the thunderstorms.

×

10-Day Weather Forecast

Almanac

Astronomy

Apr. 19, 2015 Rise Set
Actual Time
Civil Twilight
Nautical Twilight
Astronomical Twilight
Moon
Length of Visible Light
Length of Day
Tomorrow will be .
, % of the Moon is Illuminated

Today's Extremes

State Highs State Lows

Community

WunderPhotos

Upload Photos

1,814,724 photos uploaded!

WunderBlogs® & News

Nearby

Air Quality

  Air Quality AQ Index Pollutant
Not available.

Snow Depth

Station Depth Elevation

Earthquake Activity

City Distance Mag. Time & Date
Minimum magnitude displayed is 2.5.

Coastal Water Temperatures

Place Temperature

Stations

Nearby Weather Stations

Station Location Temp. Windchill Dew Point Humidity Wind Precip. Elev Updated Type